Time;durP1;ratioP1;P1;durP2;ratioP2;P2;SDS_P1;SDS_P2;PMS_P1;PMS_P2;Temp;Humidity;BMP_temperature;BMP_pressure;BME280_temperature;BME280_humidity;BME280_pressure;Samples;Min_cycle;Max_cycle;Signal;HPM_P1;HPM_P2
2023/11/08 00:01:53;;;;;;;0.20;0.20;;;;;;;19.73;73.05;98973.97;7398521;19;20071;-56
2023/11/08 00:04:19;;;;;;;0.32;0.25;;;;;;;19.79;70.85;98978.13;7401378;19;20010;-56
2023/11/08 00:06:46;;;;;;;0.30;0.30;;;;;;;22.01;65.43;98965.44;7397561;19;20014;-56
2023/11/08 00:09:12;;;;;;;0.10;0.10;;;;;;;19.37;71.90;98963.47;7398216;19;20014;-56
2023/11/08 00:11:40;;;;;;;0.10;0.10;;;;;;;19.06;74.77;98964.56;7397365;19;20007;-56
2023/11/08 00:14:07;;;;;;;0.32;0.28;;;;;;;25.69;59.87;98959.63;7400114;19;20360;-56
2023/11/08 00:16:33;;;;;;;0.25;0.25;;;;;;;21.14;60.83;98965.38;7397555;19;20513;-56
2023/11/08 00:19:00;;;;;;;0.10;0.10;;;;;;;11.43;100.00;98975.47;7397969;19;20010;-56
2023/11/08 00:21:29;;;;;;;0.20;0.20;;;;;;;9.46;100.00;98983.47;7397445;19;20348;-56
2023/11/08 00:23:55;;;;;;;0.10;0.10;;;;;;;7.09;100.00;98981.25;7397094;19;20018;-56
2023/11/08 00:26:21;;;;;;;0.10;0.10;;;;;;;6.53;100.00;98981.31;7397123;19;20013;-56
2023/11/08 00:28:48;;;;;;;0.10;0.10;;;;;;;6.55;100.00;98976.09;7394483;19;20035;-56
2023/11/08 00:31:15;;;;;;;0.15;0.15;;;;;;;9.93;100.00;98973.81;7397013;19;20010;-56
2023/11/08 00:33:41;;;;;;;0.10;0.10;;;;;;;10.37;100.00;98970.66;7396855;19;20125;-56
2023/11/08 00:36:07;;;;;;;0.20;0.20;;;;;;;8.95;100.00;98961.91;7397244;19;20014;-56
2023/11/08 00:38:35;;;;;;;0.10;0.10;;;;;;;18.22;98.49;98950.38;7395666;19;20010;-56
2023/11/08 00:41:01;;;;;;;0.10;0.10;;;;;;;18.16;96.19;98950.53;7397301;19;20463;-56
2023/11/08 00:43:27;;;;;;;0.30;0.25;;;;;;;20.16;83.31;98945.59;7396152;19;20015;-56
2023/11/08 00:45:53;;;;;;;0.95;0.95;;;;;;;25.64;65.16;98932.19;7394377;19;20021;-56
2023/11/08 00:48:23;;;;;;;0.13;0.10;;;;;;;21.83;62.91;98935.47;7395697;19;20357;-56
2023/11/08 00:50:51;;;;;;;0.10;0.10;;;;;;;19.85;69.79;98944.03;7399494;19;20417;-56
2023/11/08 00:53:18;;;;;;;0.20;0.20;;;;;;;20.60;68.93;98935.63;7396875;19;20074;-56
2023/11/08 00:55:44;;;;;;;0.10;0.10;;;;;;;20.35;68.94;98929.81;7400860;19;20042;-56
2023/11/08 00:58:10;;;;;;;0.40;0.25;;;;;;;25.49;55.41;98916.16;7396880;19;20019;-56
2023/11/08 01:00:37;;;;;;;0.10;0.10;;;;;;;26.15;51.35;98908.78;7396116;19;20555;-56
2023/11/08 01:03:03;;;;;;;0.28;0.28;;;;;;;21.55;57.91;98918.81;7396666;19;20023;-56
2023/11/08 01:05:31;;;;;;;0.20;0.20;;;;;;;22.79;58.80;98908.25;7395398;19;20010;-56
2023/11/08 01:07:57;;;;;;;0.30;0.30;;;;;;;20.14;64.59;98919.97;7394537;19;20074;-56
2023/11/08 01:10:23;;;;;;;0.45;0.43;;;;;;;22.85;57.47;98906.69;7395421;19;20003;-56
2023/11/08 01:12:50;;;;;;;0.10;0.10;;;;;;;19.92;64.08;98917.88;7398615;19;20021;-56
2023/11/08 01:15:20;;;;;;;0.10;0.10;;;;;;;20.59;65.58;98905.84;7395774;19;20366;-56
2023/11/08 01:17:47;;;;;;;0.10;0.10;;;;;;;19.64;64.13;98910.28;7395727;19;20014;-56
2023/11/08 01:20:13;;;;;;;0.10;0.10;;;;;;;24.27;53.83;98893.31;7395629;19;20339;-56
2023/11/08 01:22:40;;;;;;;0.17;0.17;;;;;;;20.25;60.95;98899.81;7395277;19;20024;-56
2023/11/08 01:25:08;;;;;;;0.10;0.10;;;;;;;19.31;63.88;98895.09;7398906;19;20010;-56
2023/11/08 01:27:34;;;;;;;0.10;0.10;;;;;;;19.36;64.99;98890.63;7395581;19;20011;-56
2023/11/08 01:30:02;;;;;;;0.10;0.10;;;;;;;19.04;65.65;98893.81;7393454;19;20010;-56
2023/11/08 01:32:28;;;;;;;0.20;0.20;;;;;;;19.33;64.71;98886.03;7389775;19;20013;-56
2023/11/08 01:34:54;;;;;;;0.45;0.45;;;;;;;19.03;65.95;98892.31;7392778;19;20011;-56
2023/11/08 01:37:20;;;;;;;0.10;0.10;;;;;;;20.08;62.55;98891.88;7393754;19;20102;-56
2023/11/08 01:39:46;;;;;;;0.10;0.10;;;;;;;20.04;61.20;98896.41;7393409;19;20017;-56
2023/11/08 01:42:12;;;;;;;0.10;0.10;;;;;;;20.85;59.08;98888.44;7397892;19;20031;-56
2023/11/08 01:44:39;;;;;;;0.10;0.10;;;;;;;20.36;60.30;98885.31;7393001;19;20486;-56
2023/11/08 01:47:07;;;;;;;0.20;0.20;;;;;;;19.97;60.71;98883.00;7398184;19;20024;-56
2023/11/08 01:49:33;;;;;;;0.10;0.10;;;;;;;19.56;62.42;98879.19;7392419;19;20007;-56
2023/11/08 01:52:00;;;;;;;0.13;0.13;;;;;;;19.45;62.62;98875.94;7393307;19;20042;-56
2023/11/08 01:54:27;;;;;;;0.40;0.22;;;;;;;20.71;60.45;98873.00;7394494;19;20101;-56
2023/11/08 01:56:55;;;;;;;3.85;1.23;;;;;;;20.57;58.61;98874.56;7393910;19;20499;-56
2023/11/08 01:59:24;;;;;;;0.10;0.10;;;;;;;19.87;60.23;98867.94;7396617;19;20014;-56
2023/11/08 02:01:50;;;;;;;0.20;0.20;;;;;;;19.62;61.30;98867.72;7392478;19;20014;-56
2023/11/08 02:04:18;;;;;;;0.10;0.10;;;;;;;19.71;61.04;98869.97;7393337;19;20011;-56
2023/11/08 02:06:44;;;;;;;0.20;0.20;;;;;;;19.72;61.39;98860.19;7393043;19;20390;-56
2023/11/08 02:09:11;;;;;;;0.50;0.43;;;;;;;19.40;61.59;98857.88;7393329;19;20007;-56
2023/11/08 02:11:38;;;;;;;0.20;0.20;;;;;;;19.31;62.52;98855.56;7398543;19;20024;-56
2023/11/08 02:14:05;;;;;;;0.10;0.10;;;;;;;19.35;62.76;98844.69;7393486;19;20035;-56
2023/11/08 02:16:32;;;;;;;0.10;0.10;;;;;;;19.54;62.38;98849.97;7394005;19;20018;-56
2023/11/08 02:18:59;;;;;;;0.10;0.10;;;;;;;19.67;61.75;98847.75;7394308;19;20022;-56
2023/11/08 02:21:25;;;;;;;0.20;0.20;;;;;;;19.75;61.82;98844.19;7393396;19;20356;-56
2023/11/08 02:23:51;;;;;;;0.17;0.17;;;;;;;19.80;61.50;98840.41;7397198;19;20026;-56
2023/11/08 02:26:17;;;;;;;0.10;0.10;;;;;;;21.53;57.49;98828.69;7390872;19;20014;-56
2023/11/08 02:28:43;;;;;;;0.10;0.10;;;;;;;21.64;56.12;98822.56;7393009;19;20403;-56
2023/11/08 02:31:09;;;;;;;0.38;0.38;;;;;;;24.71;54.21;98811.28;7393959;19;20014;-56
2023/11/08 02:33:35;;;;;;;0.20;0.20;;;;;;;17.31;61.61;98815.03;7391723;19;20015;-56
2023/11/08 02:36:02;;;;;;;0.10;0.10;;;;;;;15.42;91.64;98817.13;7398223;19;21026;-56
2023/11/08 02:38:28;;;;;;;0.10;0.10;;;;;;;21.95;60.30;98786.28;7392356;19;20344;-56
2023/11/08 02:40:54;;;;;;;0.10;0.10;;;;;;;21.51;58.57;98785.25;7395520;19;20007;-56
2023/11/08 02:43:22;;;;;;;0.10;0.10;;;;;;;20.98;59.77;98777.81;7394658;19;20014;-56
2023/11/08 02:45:48;;;;;;;0.55;0.50;;;;;;;21.50;58.86;98780.94;7391516;19;20467;-56
2023/11/08 02:48:14;;;;;;;0.10;0.10;;;;;;;20.37;60.76;98777.28;7394201;19;20007;-56
2023/11/08 02:50:41;;;;;;;0.10;0.10;;;;;;;19.88;61.82;98773.38;7393661;19;20010;-56
2023/11/08 02:53:07;;;;;;;0.10;0.10;;;;;;;19.52;63.97;98767.88;7393468;19;20014;-56
2023/11/08 02:55:35;;;;;;;0.10;0.10;;;;;;;19.45;64.61;98749.63;7392689;19;20010;-56
2023/11/08 02:58:01;;;;;;;3.50;1.00;;;;;;;19.50;64.61;98754.34;7392387;19;20015;-56
2023/11/08 03:00:27;;;;;;;0.10;0.10;;;;;;;20.00;63.65;98743.38;7391904;19;20074;-56
2023/11/08 03:02:54;;;;;;;0.25;0.25;;;;;;;20.59;62.13;98730.44;7399641;19;20022;-56
2023/11/08 03:05:21;;;;;;;0.10;0.10;;;;;;;21.62;59.81;98742.31;7398570;19;20010;-56
2023/11/08 03:07:50;;;;;;;0.43;0.43;;;;;;;20.44;62.73;98729.75;7397949;19;20472;-56
2023/11/08 03:10:17;;;;;;;7.88;0.32;;;;;;;20.40;63.63;98725.22;7398414;19;20010;-56
2023/11/08 03:12:45;;;;;;;0.50;0.43;;;;;;;20.36;63.83;98724.09;7398258;19;20007;-56
2023/11/08 03:15:12;;;;;;;0.10;0.10;;;;;;;20.50;63.03;98728.22;7398649;19;20397;-56
2023/11/08 03:17:43;;;;;;;0.10;0.10;;;;;;;22.26;59.97;98725.09;7400379;19;20014;-56
2023/11/08 03:20:12;;;;;;;0.13;0.10;;;;;;;20.44;63.29;98712.78;7399411;19;20007;-56
2023/11/08 03:22:39;;;;;;;1.00;0.40;;;;;;;21.77;60.01;98708.16;7399671;19;20015;-56
2023/11/08 03:25:06;;;;;;;0.55;0.55;;;;;;;23.30;57.26;98698.03;7397832;19;20018;-56
2023/11/08 03:27:33;;;;;;;0.10;0.10;;;;;;;22.76;60.64;98699.38;7396506;19;20018;-56
2023/11/08 03:29:59;;;;;;;0.10;0.10;;;;;;;27.84;51.55;98699.88;7395988;19;20362;-56
2023/11/08 03:32:27;;;;;;;0.10;0.10;;;;;;;24.89;52.23;98695.09;7398596;19;20006;-87
2023/11/08 03:34:54;;;;;;;3.55;0.63;;;;;;;21.66;60.60;98688.81;7390368;19;20010;-88
2023/11/08 03:37:20;;;;;;;0.52;0.20;;;;;;;27.89;50.96;98677.97;7389720;19;20022;-88
2023/11/08 03:39:46;;;;;;;0.35;0.30;;;;;;;15.03;100.00;98702.75;7389637;19;20019;-88
2023/11/08 03:42:12;;;;;;;0.52;0.22;;;;;;;12.69;100.00;98679.94;7393450;19;20010;-88
2023/11/08 03:44:38;;;;;;;0.10;0.10;;;;;;;18.49;79.72;98684.69;7392975;19;20006;-88
2023/11/08 03:47:08;;;;;;;0.40;0.20;;;;;;;23.39;84.28;98657.53;7395818;19;20090;-88
2023/11/08 03:49:34;;;;;;;2.55;0.20;;;;;;;20.55;72.54;98658.63;7395384;19;20010;-88
2023/11/08 03:52:02;;;;;;;0.75;0.15;;;;;;;21.75;70.92;98656.97;7394367;19;20023;-88
2023/11/08 03:54:28;;;;;;;0.32;0.32;;;;;;;26.09;52.96;98645.81;7394355;19;20022;-88
2023/11/08 03:56:54;;;;;;;0.10;0.10;;;;;;;21.88;65.30;98645.34;7394804;19;20374;-89
2023/11/08 03:59:20;;;;;;;0.17;0.17;;;;;;;20.59;70.46;98642.75;7392746;19;20007;-88
2023/11/08 04:01:47;;;;;;;0.20;0.10;;;;;;;20.31;73.04;98640.25;7393976;19;20010;-89
2023/11/08 04:04:14;;;;;;;0.10;0.10;;;;;;;20.11;74.38;98629.94;7396780;19;20062;-89
2023/11/08 04:06:41;;;;;;;0.10;0.10;;;;;;;19.99;76.32;98634.50;7394684;19;20422;-89
2023/11/08 04:09:07;;;;;;;0.30;0.30;;;;;;;20.48;73.76;98623.38;7393747;19;20019;-89
2023/11/08 04:11:33;;;;;;;0.82;0.38;;;;;;;21.40;71.95;98618.59;7394431;19;20010;-90
2023/11/08 04:13:59;;;;;;;0.43;0.43;;;;;;;19.59;79.68;98614.63;7392198;19;20023;-89
2023/11/08 04:16:25;;;;;;;0.47;0.30;;;;;;;22.21;69.07;98609.81;7395198;19;20022;-90
2023/11/08 04:18:52;;;;;;;0.17;0.17;;;;;;;22.58;70.43;98602.91;7395521;19;20024;-89
2023/11/08 04:21:18;;;;;;;0.20;0.20;;;;;;;24.00;67.32;98592.56;7392988;19;20003;-88
2023/11/08 04:23:44;;;;;;;0.10;0.10;;;;;;;22.24;61.70;98591.59;7394994;19;20021;-90
2023/11/08 04:26:10;;;;;;;0.40;0.30;;;;;;;21.38;66.50;98592.91;7394234;19;20003;-90
2023/11/08 04:28:42;;;;;;;0.55;0.43;;;;;;;19.58;74.85;98585.63;7395720;19;20022;-89
2023/11/08 04:31:08;;;;;;;0.20;0.13;;;;;;;24.12;61.61;98558.59;7396061;19;20022;-90
2023/11/08 04:33:34;;;;;;;1.35;0.35;;;;;;;19.59;70.61;98570.19;7393875;19;20018;-79
2023/11/08 04:36:00;;;;;;;0.10;0.10;;;;;;;18.82;77.19;98562.31;7392103;19;20010;-79
2023/11/08 04:38:26;;;;;;;0.45;0.45;;;;;;;18.76;80.65;98549.72;7391786;19;20014;-79
2023/11/08 04:40:52;;;;;;;0.30;0.30;;;;;;;18.85;80.90;98544.28;7392042;19;20015;-80
2023/11/08 04:43:19;;;;;;;0.10;0.10;;;;;;;18.31;84.18;98530.66;7392553;19;20335;-79
2023/11/08 04:45:45;;;;;;;0.10;0.10;;;;;;;18.29;85.55;98532.53;7392298;19;20005;-79
2023/11/08 04:48:11;;;;;;;0.30;0.30;;;;;;;18.04;87.27;98530.22;7393945;19;20006;-79
2023/11/08 04:50:39;;;;;;;1.00;0.55;;;;;;;18.38;86.13;98520.72;7391366;19;20494;-79
2023/11/08 04:53:05;;;;;;;0.10;0.10;;;;;;;18.14;88.30;98516.34;7393465;19;20010;-80
2023/11/08 04:55:32;;;;;;;1.23;1.23;;;;;;;18.35;86.16;98507.75;7392626;19;20369;-79
2023/11/08 04:57:58;;;;;;;0.10;0.10;;;;;;;18.76;84.24;98501.78;7391686;19;20031;-79
2023/11/08 05:00:24;;;;;;;0.10;0.10;;;;;;;18.84;83.50;98505.38;7392502;19;20420;-79
2023/11/08 05:02:51;;;;;;;0.47;0.47;;;;;;;18.61;85.14;98498.97;7394227;19;20018;-79
2023/11/08 05:05:19;;;;;;;0.65;0.35;;;;;;;18.64;85.78;98489.38;7392170;19;20018;-80
2023/11/08 05:07:46;;;;;;;0.20;0.20;;;;;;;18.79;83.71;98489.38;7393387;19;20467;-79
2023/11/08 05:10:13;;;;;;;0.50;0.50;;;;;;;18.68;86.33;98486.94;7391331;19;20035;-79
2023/11/08 05:12:39;;;;;;;0.15;0.15;;;;;;;18.58;86.42;98483.19;7391069;19;20002;-79
2023/11/08 05:15:09;;;;;;;1.75;0.70;;;;;;;18.45;87.05;98483.38;7390198;19;20349;-79
2023/11/08 05:17:38;;;;;;;0.32;0.32;;;;;;;16.50;100.00;98471.34;7389781;19;20018;-79
2023/11/08 05:20:06;;;;;;;0.10;0.10;;;;;;;17.63;98.22;98467.75;7392230;19;20011;-79
2023/11/08 05:22:32;;;;;;;0.68;0.40;;;;;;;17.65;96.74;98463.06;7390699;19;20014;-79
2023/11/08 05:25:00;;;;;;;1.75;0.50;;;;;;;17.36;99.23;98450.34;7388141;19;20358;-79
2023/11/08 05:27:26;;;;;;;0.28;0.28;;;;;;;17.43;99.43;98438.38;7390038;19;20462;-79
2023/11/08 05:29:53;;;;;;;0.10;0.10;;;;;;;15.85;100.00;98432.34;7390841;19;20016;-79
2023/11/08 05:32:21;;;;;;;0.50;0.50;;;;;;;15.15;100.00;98429.28;7390013;19;20006;-80
2023/11/08 05:34:48;;;;;;;0.15;0.15;;;;;;;16.24;100.00;98432.13;7391156;19;20010;-79
2023/11/08 05:37:14;;;;;;;0.50;0.50;;;;;;;17.56;100.00;98426.25;7392027;19;20069;-79
2023/11/08 05:39:43;;;;;;;2.30;0.38;;;;;;;17.74;100.00;98411.06;7389928;19;20002;-79
2023/11/08 05:42:09;;;;;;;0.80;0.32;;;;;;;11.44;100.00;98420.19;7390466;19;20023;-79
2023/11/08 05:44:36;;;;;;;0.40;0.20;;;;;;;14.13;100.00;98392.97;7388976;19;20032;-79
2023/11/08 05:47:02;;;;;;;0.10;0.10;;;;;;;17.45;100.00;98379.47;7392954;19;20015;-79
2023/11/08 05:49:28;;;;;;;0.10;0.10;;;;;;;17.99;100.00;98364.19;7389889;19;20416;-79
2023/11/08 05:51:54;;;;;;;0.10;0.03;;;;;;;17.96;100.00;98351.97;7389727;19;20007;-79
2023/11/08 05:54:20;;;;;;;0.10;0.10;;;;;;;18.07;100.00;98348.78;7388883;19;20030;-80
2023/11/08 05:56:46;;;;;;;0.10;0.05;;;;;;;18.33;100.00;98335.63;7390679;19;20021;-80
2023/11/08 05:59:14;;;;;;;0.10;0.10;;;;;;;18.20;100.00;98330.94;7389839;19;20013;-80
2023/11/08 06:01:41;;;;;;;0.10;0.05;;;;;;;19.20;97.14;98330.88;7391100;19;20039;-80
2023/11/08 06:04:07;;;;;;;0.30;0.30;;;;;;;20.31;87.72;98326.38;7390768;19;19994;-79
2023/11/08 06:06:35;;;;;;;0.90;0.65;;;;;;;19.87;87.71;98314.09;7388053;19;20014;-79
2023/11/08 06:09:04;;;;;;;0.13;0.10;;;;;;;19.34;90.20;98312.38;7391024;19;20021;-80
2023/11/08 06:11:31;;;;;;;2.80;0.57;;;;;;;19.49;90.34;98300.25;7388865;19;20113;-80
2023/11/08 06:13:57;;;;;;;0.10;0.10;;;;;;;19.23;91.46;98307.13;7389249;19;20047;-80
2023/11/08 06:16:24;;;;;;;0.30;0.30;;;;;;;18.91;93.40;98304.28;7389799;19;20540;-80
2023/11/08 06:18:50;;;;;;;0.10;0.00;;;;;;;19.23;91.55;98295.84;7390971;19;20022;-80
2023/11/08 06:21:16;;;;;;;0.10;0.10;;;;;;;19.09;93.04;98288.22;7389365;19;20468;-79
2023/11/08 06:23:45;;;;;;;0.22;0.20;;;;;;;18.70;95.44;98284.06;7389013;19;20006;-80
2023/11/08 06:26:15;;;;;;;1.60;0.50;;;;;;;18.63;96.06;98267.91;7389195;19;20054;-80
2023/11/08 06:28:41;;;;;;;0.20;0.10;;;;;;;18.66;96.49;98266.78;7387692;19;20011;-80
2023/11/08 06:31:07;;;;;;;0.40;0.10;;;;;;;18.80;95.74;98263.16;7389625;19;20024;-80
2023/11/08 06:33:34;;;;;;;0.15;0.15;;;;;;;18.92;94.94;98255.03;7390940;19;20533;-80
2023/11/08 06:36:00;;;;;;;0.13;0.13;;;;;;;18.85;94.29;98250.16;7388433;19;20024;-80
2023/11/08 06:38:30;;;;;;;0.20;0.20;;;;;;;18.70;95.99;98236.88;7388709;19;20014;-80
2023/11/08 06:40:56;;;;;;;1.42;1.35;;;;;;;20.70;87.10;98226.41;7389184;19;20018;-80
2023/11/08 06:43:23;;;;;;;2.28;0.68;;;;;;;19.01;92.38;98225.44;7390276;19;20343;-80
2023/11/08 06:45:49;;;;;;;0.50;0.50;;;;;;;18.89;94.02;98227.94;7389705;19;20091;-80
2023/11/08 06:48:18;;;;;;;0.80;0.80;;;;;;;18.87;94.07;98214.41;7387372;19;20014;-80
2023/11/08 06:50:44;;;;;;;0.88;0.65;;;;;;;18.88;94.37;98215.16;7389410;19;20469;-80
2023/11/08 06:53:11;;;;;;;0.20;0.20;;;;;;;19.15;93.67;98204.09;7388068;19;20015;-80
2023/11/08 06:55:38;;;;;;;0.30;0.30;;;;;;;19.81;88.73;98189.28;7390120;19;20441;-80
2023/11/08 06:58:07;;;;;;;0.10;0.10;;;;;;;19.66;90.33;98199.38;7389999;19;20342;-80
2023/11/08 07:00:34;;;;;;;2.22;1.33;;;;;;;19.83;86.29;98190.22;7386692;19;20356;-81
2023/11/08 07:03:00;;;;;;;0.43;0.32;;;;;;;21.66;80.72;98188.00;7387697;19;20330;-80
2023/11/08 07:05:26;;;;;;;1.15;0.60;;;;;;;18.41;87.24;98184.16;7388252;19;20010;-81
2023/11/08 07:07:52;;;;;;;0.13;0.13;;;;;;;13.78;100.00;98183.47;7388014;19;20017;-80
2023/11/08 07:10:18;;;;;;;0.10;0.10;;;;;;;13.76;100.00;98186.81;7387056;19;20020;-81
2023/11/08 07:12:44;;;;;;;1.90;0.93;;;;;;;12.71;100.00;98174.63;7388267;19;20023;-81
2023/11/08 07:15:12;;;;;;;8.10;0.75;;;;;;;12.73;100.00;98174.84;7388979;19;20386;-81
2023/11/08 07:17:38;;;;;;;0.10;0.08;;;;;;;13.22;100.00;98172.53;7388015;19;20018;-81
2023/11/08 07:20:06;;;;;;;0.28;0.28;;;;;;;14.76;100.00;98162.31;7386337;19;20082;-81
2023/11/08 07:22:33;;;;;;;1.98;1.02;;;;;;;17.48;100.00;98153.16;7386642;19;20006;-80
2023/11/08 07:24:59;;;;;;;0.10;0.00;;;;;;;17.44;100.00;98153.53;7387773;19;20019;-80
2023/11/08 07:27:25;;;;;;;0.63;0.57;;;;;;;17.63;100.00;98141.91;7388773;19;20021;-80
2023/11/08 07:29:51;;;;;;;1.75;0.80;;;;;;;21.00;94.07;98146.00;7387380;19;20014;-80
2023/11/08 07:32:18;;;;;;;0.28;0.28;;;;;;;21.03;91.44;98131.44;7387527;19;20006;-80
2023/11/08 07:34:44;;;;;;;0.10;0.00;;;;;;;19.27;98.23;98126.88;7369128;19;20031;-80
2023/11/08 07:37:13;;;;;;;0.95;0.55;;;;;;;20.97;92.70;98124.53;7387662;19;20021;-80
2023/11/08 07:39:40;;;;;;;0.10;0.10;;;;;;;19.96;95.82;98129.78;7385223;19;20446;-80
2023/11/08 07:42:11;;;;;;;0.10;0.10;;;;;;;21.61;86.59;98123.13;7386674;19;20014;-80
2023/11/08 07:44:37;;;;;;;0.80;0.25;;;;;;;18.84;99.23;98102.00;7385295;19;20022;-80
2023/11/08 07:47:03;;;;;;;0.88;0.85;;;;;;;19.58;99.13;98101.94;7388489;19;20034;-80
2023/11/08 07:49:29;;;;;;;0.10;0.10;;;;;;;19.73;99.45;98098.22;7393579;19;20002;-80
2023/11/08 07:51:55;;;;;;;1.67;0.30;;;;;;;21.31;92.45;98092.50;7394787;19;20663;-81
2023/11/08 07:54:22;;;;;;;0.35;0.32;;;;;;;19.15;100.00;98103.25;7396447;19;20447;-80
2023/11/08 07:56:48;;;;;;;0.35;0.35;;;;;;;19.06;100.00;98092.59;7393847;19;20023;-80
2023/11/08 07:59:14;;;;;;;1.17;0.45;;;;;;;19.38;100.00;98089.69;7395261;19;20026;-80
2023/11/08 08:01:40;;;;;;;0.20;0.20;;;;;;;21.86;92.30;98078.28;7393414;19;20007;-80
2023/11/08 08:04:06;;;;;;;0.30;0.30;;;;;;;20.32;97.85;98070.59;7400107;19;20528;-80
2023/11/08 08:06:32;;;;;;;0.20;0.20;;;;;;;22.28;91.62;98081.41;7395551;19;20026;-80
2023/11/08 08:08:59;;;;;;;0.32;0.32;;;;;;;23.17;86.30;98082.03;7394543;19;20018;-81
2023/11/08 08:11:25;;;;;;;1.20;0.38;;;;;;;23.73;85.87;98079.47;7394432;19;20014;-80
2023/11/08 08:13:52;;;;;;;0.00;0.00;;;;;;;25.35;77.63;98057.84;7393796;19;20029;-80
2023/11/08 08:16:19;;;;;;;0.10;0.00;;;;;;;29.45;62.29;98063.72;7392697;19;20011;-80
2023/11/08 08:18:48;;;;;;;0.20;0.20;;;;;;;21.37;85.61;98070.31;7397051;19;20006;-80
2023/11/08 08:21:14;;;;;;;0.10;0.00;;;;;;;22.14;87.20;98066.19;7396598;19;20023;-80
2023/11/08 08:23:40;;;;;;;0.10;0.00;;;;;;;21.44;89.20;98046.78;7392037;19;20002;-80
2023/11/08 08:26:07;;;;;;;0.20;0.20;;;;;;;20.61;95.73;98048.13;7392046;19;20007;-80
2023/11/08 08:28:34;;;;;;;0.10;0.10;;;;;;;20.30;98.91;98044.97;7392731;19;20392;-80
2023/11/08 08:31:05;;;;;;;0.13;0.10;;;;;;;22.36;89.72;98025.25;7395084;19;20010;-80
2023/11/08 08:33:33;;;;;;;1.00;0.70;;;;;;;21.59;89.75;98038.00;7393482;19;20016;-80
2023/11/08 08:36:00;;;;;;;0.20;0.20;;;;;;;20.49;97.98;98022.44;7394891;19;20451;-80
2023/11/08 08:38:26;;;;;;;0.13;0.05;;;;;;;20.34;100.00;98014.19;7393476;19;20014;-81
2023/11/08 08:40:52;;;;;;;0.20;0.20;;;;;;;21.44;97.93;98012.78;7392980;19;20010;-80
2023/11/08 08:43:20;;;;;;;0.10;0.10;;;;;;;21.20;95.86;98002.47;7391547;19;20003;-80
2023/11/08 08:45:47;;;;;;;0.73;0.40;;;;;;;25.61;77.85;97986.69;7391333;19;20015;-80
2023/11/08 08:48:14;;;;;;;0.10;0.10;;;;;;;26.39;70.77;97993.25;7392708;19;20066;-80
2023/11/08 08:50:40;;;;;;;0.10;0.00;;;;;;;27.07;66.33;97991.28;7392184;19;20011;-80
2023/11/08 08:53:06;;;;;;;0.10;0.10;;;;;;;27.05;65.24;97989.03;7390935;19;20002;-80
2023/11/08 08:55:35;;;;;;;0.10;0.00;;;;;;;26.88;65.37;97998.13;7391357;19;20018;-80
2023/11/08 08:58:01;;;;;;;0.35;0.10;;;;;;;26.87;64.93;97996.66;7391949;19;20018;-79
2023/11/08 09:00:28;;;;;;;0.75;0.20;;;;;;;25.77;66.72;97993.31;7389477;19;20010;-80
2023/11/08 09:02:54;;;;;;;0.10;0.00;;;;;;;24.34;74.06;97996.03;7394561;19;20207;-80
2023/11/08 09:05:20;;;;;;;0.10;0.10;;;;;;;24.23;77.25;97996.75;7389892;19;20022;-80
2023/11/08 09:07:47;;;;;;;0.10;0.00;;;;;;;22.87;85.59;98008.97;7391494;19;20036;-80
2023/11/08 09:10:14;;;;;;;0.00;0.00;;;;;;;23.59;82.44;97998.94;7389901;19;19999;-79
2023/11/08 09:12:42;;;;;;;0.20;0.20;;;;;;;25.10;75.93;97989.38;7389890;19;20015;-80
2023/11/08 09:15:08;;;;;;;0.17;0.10;;;;;;;24.17;76.72;98002.78;7391524;19;20462;-80
2023/11/08 09:17:34;;;;;;;0.43;0.20;;;;;;;23.95;77.06;97996.38;7391981;19;20137;-81
2023/11/08 09:20:07;;;;;;;0.00;0.00;;;;;;;23.70;79.01;98001.09;7390447;19;20002;-80
2023/11/08 09:22:33;;;;;;;0.10;0.00;;;;;;;23.32;81.31;97999.28;7389727;19;20007;-80
2023/11/08 09:24:59;;;;;;;0.00;0.00;;;;;;;22.87;83.01;98008.97;7387929;19;20017;-80
2023/11/08 09:27:26;;;;;;;0.10;0.10;;;;;;;22.25;87.83;98016.63;7385503;19;20019;-80
2023/11/08 09:29:52;;;;;;;0.10;0.10;;;;;;;21.96;92.07;98015.94;7383793;19;20015;-80
2023/11/08 09:32:18;;;;;;;0.10;0.10;;;;;;;19.81;100.00;98022.59;7386736;19;20035;-80
2023/11/08 09:34:44;;;;;;;4.35;0.55;;;;;;;18.74;100.00;98010.84;7387619;19;20010;-80
2023/11/08 09:37:11;;;;;;;0.00;0.00;;;;;;;17.88;100.00;98007.63;7387036;19;20006;-80
2023/11/08 09:39:37;;;;;;;0.08;0.00;;;;;;;22.34;100.00;98016.59;7388845;19;20009;-80
2023/11/08 09:42:04;;;;;;;0.10;0.00;;;;;;;24.74;91.02;98029.84;7391517;19;19995;-80
2023/11/08 09:44:31;;;;;;;0.00;0.00;;;;;;;26.43;76.85;98019.94;7391426;19;20018;-80
2023/11/08 09:46:58;;;;;;;0.10;0.10;;;;;;;23.61;81.61;98028.25;7390123;19;20006;-80
2023/11/08 09:49:24;;;;;;;0.10;0.10;;;;;;;27.34;74.69;98036.25;7388099;19;20037;-80
2023/11/08 09:51:51;;;;;;;0.10;0.10;;;;;;;29.23;63.34;98028.31;7391601;19;21107;-80
2023/11/08 09:54:17;;;;;;;0.17;0.17;;;;;;;29.17;61.33;98033.78;7389269;19;19998;-80
2023/11/08 09:56:47;;;;;;;0.10;0.05;;;;;;;29.21;60.36;98042.56;7389806;19;20040;-80
2023/11/08 09:59:15;;;;;;;0.40;0.10;;;;;;;29.80;58.34;98038.00;7389559;19;20028;-80
2023/11/08 10:01:44;;;;;;;0.10;0.10;;;;;;;28.12;60.48;98048.88;7389091;19;20014;-80
2023/11/08 10:04:16;;;;;;;0.00;0.00;;;;;;;26.09;66.59;98050.16;7391500;19;20548;-80
2023/11/08 10:06:43;;;;;;;0.00;0.00;;;;;;;27.60;63.86;98060.50;7389047;19;20070;-80
2023/11/08 10:09:11;;;;;;;0.10;0.10;;;;;;;25.72;67.52;98046.53;7389339;19;20015;-81
2023/11/08 10:11:39;;;;;;;0.10;0.08;;;;;;;26.61;66.66;98045.88;7387494;19;20370;-80
2023/11/08 10:14:07;;;;;;;0.00;0.00;;;;;;;26.90;65.55;98063.97;7389396;19;20022;-80
2023/11/08 10:16:48;;;;;;;0.00;0.00;;;;;;;29.83;55.87;98105.59;7388100;19;20018;-79
2023/11/08 10:19:14;;;;;;;0.10;0.10;;;;;;;30.10;53.24;98109.59;7390710;19;20094;-80
2023/11/08 10:21:50;;;;;;;0.10;0.00;;;;;;;28.11;54.64;98110.34;7390339;19;20077;-80
2023/11/08 10:24:17;;;;;;;0.20;0.20;;;;;;;35.95;43.55;98088.69;7388185;19;20038;-80
2023/11/08 10:26:44;;;;;;;0.10;0.10;;;;;;;32.76;45.26;98100.84;7388464;19;20006;-80
2023/11/08 10:29:13;;;;;;;0.57;0.38;;;;;;;33.93;45.25;98094.88;7387724;19;20010;-80
2023/11/08 10:31:43;;;;;;;0.10;0.00;;;;;;;37.66;38.13;98085.50;7389561;19;20002;-81
2023/11/08 10:34:24;;;;;;;0.00;0.00;;;;;;;38.84;34.49;98090.97;7388256;19;20018;-80
2023/11/08 10:36:50;;;;;;;0.10;0.10;;;;;;;39.89;31.13;98075.47;7388354;19;20388;-81
2023/11/08 10:39:16;;;;;;;0.05;0.00;;;;;;;35.07;36.56;98094.13;7386497;19;20074;-80
2023/11/08 10:41:44;;;;;;;0.20;0.20;;;;;;;27.97;45.51;98106.00;7388414;19;20006;-81
2023/11/08 10:44:11;;;;;;;0.15;0.05;;;;;;;24.42;68.22;98108.25;7388249;19;20007;-80
2023/11/08 10:46:40;;;;;;;0.10;0.00;;;;;;;25.35;58.63;98120.56;7388399;19;20416;-80
2023/11/08 10:49:08;;;;;;;0.10;0.10;;;;;;;21.18;92.00;98126.88;7388597;19;20027;-81
2023/11/08 10:51:40;;;;;;;0.45;0.30;;;;;;;15.26;100.00;98141.44;7387239;19;20011;-81
2023/11/08 10:54:07;;;;;;;0.10;0.10;;;;;;;12.83;100.00;98143.19;7387282;19;20003;-80
2023/11/08 10:56:35;;;;;;;0.10;0.05;;;;;;;11.79;100.00;98153.75;7386434;19;20002;-80
2023/11/08 10:59:03;;;;;;;0.10;0.10;;;;;;;11.90;100.00;98157.19;7387569;19;20501;-81
2023/11/08 11:01:32;;;;;;;0.00;0.00;;;;;;;11.50;100.00;98163.69;7387402;19;20007;-81
2023/11/08 11:04:06;;;;;;;0.10;0.00;;;;;;;11.16;100.00;98170.88;7390512;19;20102;-80
2023/11/08 11:06:34;;;;;;;0.10;0.00;;;;;;;11.74;100.00;98162.94;7391451;19;20025;-80
2023/11/08 11:09:09;;;;;;;0.20;0.20;;;;;;;10.96;100.00;98162.94;7389743;19;20027;-80
2023/11/08 11:12:05;;;;;;;0.10;0.00;;;;;;;10.96;100.00;98168.53;7389212;19;20006;-80
2023/11/08 11:14:45;;;;;;;0.10;0.00;;;;;;;10.78;100.00;98180.31;7390250;19;20599;-80
2023/11/08 11:17:28;;;;;;;0.00;0.00;;;;;;;10.68;100.00;98177.81;7391655;19;20040;-80
2023/11/08 11:20:01;;;;;;;3.30;0.80;;;;;;;10.60;100.00;98182.44;7387761;19;20021;-80
2023/11/08 11:22:27;;;;;;;1.02;0.20;;;;;;;11.15;100.00;98192.38;7392450;19;20485;-81
2023/11/08 11:24:53;;;;;;;0.10;0.00;;;;;;;10.52;100.00;98198.19;7395923;19;20030;-81
2023/11/08 11:27:32;;;;;;;0.10;0.10;;;;;;;10.83;100.00;98193.44;7395447;19;20015;-80
2023/11/08 11:30:22;;;;;;;0.10;0.00;;;;;;;10.66;100.00;98201.88;7396203;19;20011;-81
2023/11/08 11:32:52;;;;;;;0.20;0.20;;;;;;;11.90;100.00;98187.09;7396499;19;20022;-80